sensor_id;sensor_type;location;lat;lon;timestamp;P1;durP1;ratioP1;P2;durP2;ratioP2
12350;SDS011;6240;51.538;7.696;2022-07-23T00:00:18;12.70;;;8.40;;
12350;SDS011;6240;51.538;7.696;2022-07-23T00:02:47;11.25;;;8.07;;
12350;SDS011;6240;51.538;7.696;2022-07-23T00:05:14;10.90;;;7.07;;
12350;SDS011;6240;51.538;7.696;2022-07-23T00:07:41;9.68;;;7.47;;
12350;SDS011;6240;51.538;7.696;2022-07-23T00:10:08;7.80;;;6.38;;
12350;SDS011;6240;51.538;7.696;2022-07-23T00:12:36;7.90;;;6.57;;
12350;SDS011;6240;51.538;7.696;2022-07-23T00:15:04;8.05;;;6.57;;
12350;SDS011;6240;51.538;7.696;2022-07-23T00:17:32;9.90;;;6.43;;
12350;SDS011;6240;51.538;7.696;2022-07-23T00:20:00;6.60;;;5.90;;
12350;SDS011;6240;51.538;7.696;2022-07-23T00:22:28;10.18;;;6.43;;
12350;SDS011;6240;51.538;7.696;2022-07-23T00:24:55;11.52;;;7.50;;
12350;SDS011;6240;51.538;7.696;2022-07-23T00:27:22;13.77;;;8.65;;
12350;SDS011;6240;51.538;7.696;2022-07-23T00:29:49;13.13;;;8.32;;
12350;SDS011;6240;51.538;7.696;2022-07-23T00:32:16;10.57;;;8.38;;
12350;SDS011;6240;51.538;7.696;2022-07-23T00:34:44;11.10;;;8.13;;
12350;SDS011;6240;51.538;7.696;2022-07-23T00:37:12;10.45;;;6.72;;
12350;SDS011;6240;51.538;7.696;2022-07-23T00:39:39;10.52;;;7.00;;
12350;SDS011;6240;51.538;7.696;2022-07-23T00:42:06;9.95;;;7.00;;
12350;SDS011;6240;51.538;7.696;2022-07-23T00:44:34;11.57;;;7.97;;
12350;SDS011;6240;51.538;7.696;2022-07-23T00:47:01;11.23;;;7.38;;
12350;SDS011;6240;51.538;7.696;2022-07-23T00:49:30;8.60;;;7.70;;
12350;SDS011;6240;51.538;7.696;2022-07-23T00:51:57;11.35;;;8.23;;
12350;SDS011;6240;51.538;7.696;2022-07-23T00:54:29;13.40;;;9.00;;
12350;SDS011;6240;51.538;7.696;2022-07-23T00:56:56;10.68;;;9.02;;
12350;SDS011;6240;51.538;7.696;2022-07-23T00:59:23;9.70;;;8.52;;
12350;SDS011;6240;51.538;7.696;2022-07-23T01:01:51;11.35;;;8.77;;
12350;SDS011;6240;51.538;7.696;2022-07-23T01:04:18;12.38;;;8.98;;
12350;SDS011;6240;51.538;7.696;2022-07-23T01:06:46;12.50;;;9.57;;
12350;SDS011;6240;51.538;7.696;2022-07-23T01:09:13;12.32;;;9.57;;
12350;SDS011;6240;51.538;7.696;2022-07-23T01:11:43;12.40;;;10.30;;
12350;SDS011;6240;51.538;7.696;2022-07-23T01:14:13;12.48;;;10.05;;
12350;SDS011;6240;51.538;7.696;2022-07-23T01:16:43;13.47;;;10.43;;
12350;SDS011;6240;51.538;7.696;2022-07-23T01:19:14;16.48;;;12.02;;
12350;SDS011;6240;51.538;7.696;2022-07-23T01:21:42;13.80;;;9.52;;
12350;SDS011;6240;51.538;7.696;2022-07-23T01:24:12;13.93;;;10.65;;
12350;SDS011;6240;51.538;7.696;2022-07-23T01:26:41;12.27;;;9.40;;
12350;SDS011;6240;51.538;7.696;2022-07-23T01:29:15;11.75;;;9.20;;
12350;SDS011;6240;51.538;7.696;2022-07-23T01:31:42;11.82;;;9.43;;
12350;SDS011;6240;51.538;7.696;2022-07-23T01:34:09;11.65;;;9.60;;
12350;SDS011;6240;51.538;7.696;2022-07-23T01:36:37;12.80;;;8.60;;
12350;SDS011;6240;51.538;7.696;2022-07-23T01:39:05;11.82;;;9.60;;
12350;SDS011;6240;51.538;7.696;2022-07-23T01:41:34;11.70;;;9.80;;
12350;SDS011;6240;51.538;7.696;2022-07-23T01:44:01;12.65;;;10.13;;
12350;SDS011;6240;51.538;7.696;2022-07-23T01:46:29;12.25;;;9.32;;
12350;SDS011;6240;51.538;7.696;2022-07-23T01:48:58;13.90;;;10.30;;
12350;SDS011;6240;51.538;7.696;2022-07-23T01:51:25;12.05;;;10.45;;
12350;SDS011;6240;51.538;7.696;2022-07-23T01:53:53;21.08;;;15.63;;
12350;SDS011;6240;51.538;7.696;2022-07-23T01:56:20;17.65;;;12.98;;
12350;SDS011;6240;51.538;7.696;2022-07-23T01:58:57;15.07;;;11.00;;
12350;SDS011;6240;51.538;7.696;2022-07-23T02:01:24;12.75;;;10.15;;
12350;SDS011;6240;51.538;7.696;2022-07-23T02:03:51;13.00;;;10.40;;
12350;SDS011;6240;51.538;7.696;2022-07-23T02:06:19;14.07;;;9.50;;
12350;SDS011;6240;51.538;7.696;2022-07-23T02:08:52;11.85;;;9.00;;
12350;SDS011;6240;51.538;7.696;2022-07-23T02:11:19;13.13;;;9.20;;
12350;SDS011;6240;51.538;7.696;2022-07-23T02:13:46;10.55;;;9.05;;
12350;SDS011;6240;51.538;7.696;2022-07-23T02:16:15;11.73;;;9.32;;
12350;SDS011;6240;51.538;7.696;2022-07-23T02:18:44;9.73;;;8.63;;
12350;SDS011;6240;51.538;7.696;2022-07-23T02:21:11;13.15;;;9.00;;
12350;SDS011;6240;51.538;7.696;2022-07-23T02:23:39;9.77;;;8.77;;
12350;SDS011;6240;51.538;7.696;2022-07-23T02:26:06;12.25;;;9.73;;
12350;SDS011;6240;51.538;7.696;2022-07-23T02:28:33;12.18;;;9.45;;
12350;SDS011;6240;51.538;7.696;2022-07-23T02:31:00;12.77;;;9.20;;
12350;SDS011;6240;51.538;7.696;2022-07-23T02:33:29;14.20;;;9.60;;
12350;SDS011;6240;51.538;7.696;2022-07-23T02:35:57;10.88;;;9.45;;
12350;SDS011;6240;51.538;7.696;2022-07-23T02:38:24;11.32;;;10.13;;
12350;SDS011;6240;51.538;7.696;2022-07-23T02:40:51;14.60;;;10.43;;
12350;SDS011;6240;51.538;7.696;2022-07-23T02:43:18;13.15;;;9.57;;
12350;SDS011;6240;51.538;7.696;2022-07-23T02:45:45;14.38;;;10.25;;
12350;SDS011;6240;51.538;7.696;2022-07-23T02:48:13;14.35;;;9.95;;
12350;SDS011;6240;51.538;7.696;2022-07-23T02:50:41;11.63;;;10.02;;
12350;SDS011;6240;51.538;7.696;2022-07-23T02:53:08;12.85;;;9.50;;
12350;SDS011;6240;51.538;7.696;2022-07-23T02:55:36;12.43;;;10.32;;
12350;SDS011;6240;51.538;7.696;2022-07-23T02:58:03;15.93;;;10.20;;
12350;SDS011;6240;51.538;7.696;2022-07-23T03:00:30;13.07;;;9.43;;
12350;SDS011;6240;51.538;7.696;2022-07-23T03:02:58;12.07;;;9.82;;
12350;SDS011;6240;51.538;7.696;2022-07-23T03:05:25;12.63;;;10.73;;
12350;SDS011;6240;51.538;7.696;2022-07-23T03:07:53;14.35;;;10.95;;
12350;SDS011;6240;51.538;7.696;2022-07-23T03:10:20;12.95;;;10.10;;
12350;SDS011;6240;51.538;7.696;2022-07-23T03:12:47;11.48;;;9.65;;
12350;SDS011;6240;51.538;7.696;2022-07-23T03:15:15;12.35;;;9.65;;
12350;SDS011;6240;51.538;7.696;2022-07-23T03:17:42;11.10;;;9.80;;
12350;SDS011;6240;51.538;7.696;2022-07-23T03:20:09;12.25;;;9.77;;
12350;SDS011;6240;51.538;7.696;2022-07-23T03:22:37;11.75;;;10.30;;
12350;SDS011;6240;51.538;7.696;2022-07-23T03:25:06;12.23;;;10.50;;
12350;SDS011;6240;51.538;7.696;2022-07-23T03:27:34;13.38;;;10.68;;
12350;SDS011;6240;51.538;7.696;2022-07-23T03:30:01;10.45;;;9.07;;
12350;SDS011;6240;51.538;7.696;2022-07-23T03:32:28;10.48;;;9.02;;
12350;SDS011;6240;51.538;7.696;2022-07-23T03:34:56;14.85;;;10.13;;
12350;SDS011;6240;51.538;7.696;2022-07-23T03:37:24;11.57;;;10.47;;
12350;SDS011;6240;51.538;7.696;2022-07-23T03:39:51;17.63;;;10.40;;
12350;SDS011;6240;51.538;7.696;2022-07-23T03:42:20;12.65;;;10.05;;
12350;SDS011;6240;51.538;7.696;2022-07-23T03:44:47;11.98;;;10.57;;
12350;SDS011;6240;51.538;7.696;2022-07-23T03:47:14;12.85;;;10.63;;
12350;SDS011;6240;51.538;7.696;2022-07-23T03:49:42;13.88;;;10.13;;
12350;SDS011;6240;51.538;7.696;2022-07-23T03:52:09;11.70;;;10.52;;
12350;SDS011;6240;51.538;7.696;2022-07-23T03:54:36;12.40;;;10.60;;
12350;SDS011;6240;51.538;7.696;2022-07-23T03:57:03;12.70;;;10.60;;
12350;SDS011;6240;51.538;7.696;2022-07-23T03:59:37;15.02;;;10.93;;
12350;SDS011;6240;51.538;7.696;2022-07-23T04:02:04;13.63;;;11.47;;
12350;SDS011;6240;51.538;7.696;2022-07-23T04:04:31;13.55;;;11.35;;
12350;SDS011;6240;51.538;7.696;2022-07-23T04:06:59;11.20;;;10.07;;
12350;SDS011;6240;51.538;7.696;2022-07-23T04:09:26;11.25;;;9.77;;
12350;SDS011;6240;51.538;7.696;2022-07-23T04:11:53;13.17;;;10.17;;
12350;SDS011;6240;51.538;7.696;2022-07-23T04:14:21;12.95;;;10.32;;
12350;SDS011;6240;51.538;7.696;2022-07-23T04:16:49;12.77;;;10.87;;
12350;SDS011;6240;51.538;7.696;2022-07-23T04:19:16;14.95;;;11.27;;
12350;SDS011;6240;51.538;7.696;2022-07-23T04:21:43;14.47;;;10.57;;
12350;SDS011;6240;51.538;7.696;2022-07-23T04:24:12;11.03;;;9.90;;
12350;SDS011;6240;51.538;7.696;2022-07-23T04:26:39;12.93;;;11.33;;
12350;SDS011;6240;51.538;7.696;2022-07-23T04:29:06;11.77;;;10.47;;
12350;SDS011;6240;51.538;7.696;2022-07-23T04:31:34;12.63;;;11.27;;
12350;SDS011;6240;51.538;7.696;2022-07-23T04:34:11;18.20;;;12.30;;
12350;SDS011;6240;51.538;7.696;2022-07-23T04:36:38;13.23;;;11.60;;
12350;SDS011;6240;51.538;7.696;2022-07-23T04:39:05;15.75;;;12.65;;
12350;SDS011;6240;51.538;7.696;2022-07-23T04:41:32;16.07;;;12.50;;
12350;SDS011;6240;51.538;7.696;2022-07-23T04:44:02;15.03;;;12.03;;
12350;SDS011;6240;51.538;7.696;2022-07-23T04:46:29;12.87;;;11.50;;
12350;SDS011;6240;51.538;7.696;2022-07-23T04:48:56;14.98;;;12.27;;
12350;SDS011;6240;51.538;7.696;2022-07-23T04:51:25;13.45;;;12.05;;
12350;SDS011;6240;51.538;7.696;2022-07-23T04:53:54;14.27;;;11.80;;
12350;SDS011;6240;51.538;7.696;2022-07-23T04:56:21;14.48;;;12.55;;
12350;SDS011;6240;51.538;7.696;2022-07-23T04:58:48;13.30;;;11.43;;
12350;SDS011;6240;51.538;7.696;2022-07-23T05:01:23;16.10;;;12.07;;
12350;SDS011;6240;51.538;7.696;2022-07-23T05:03:50;13.25;;;11.90;;
12350;SDS011;6240;51.538;7.696;2022-07-23T05:06:17;12.60;;;11.40;;
12350;SDS011;6240;51.538;7.696;2022-07-23T05:08:45;13.20;;;11.50;;
12350;SDS011;6240;51.538;7.696;2022-07-23T05:11:14;13.20;;;11.82;;
12350;SDS011;6240;51.538;7.696;2022-07-23T05:13:41;13.67;;;10.80;;
12350;SDS011;6240;51.538;7.696;2022-07-23T05:16:08;14.27;;;12.65;;
12350;SDS011;6240;51.538;7.696;2022-07-23T05:18:35;13.93;;;11.93;;
12350;SDS011;6240;51.538;7.696;2022-07-23T05:21:03;15.52;;;12.50;;
12350;SDS011;6240;51.538;7.696;2022-07-23T05:23:30;15.63;;;12.40;;
12350;SDS011;6240;51.538;7.696;2022-07-23T05:25:59;14.73;;;11.75;;
12350;SDS011;6240;51.538;7.696;2022-07-23T05:28:26;16.20;;;12.23;;
12350;SDS011;6240;51.538;7.696;2022-07-23T05:30:53;13.88;;;12.02;;
12350;SDS011;6240;51.538;7.696;2022-07-23T05:33:20;18.97;;;12.13;;
12350;SDS011;6240;51.538;7.696;2022-07-23T05:35:48;16.45;;;12.93;;
12350;SDS011;6240;51.538;7.696;2022-07-23T05:38:15;15.05;;;13.40;;
12350;SDS011;6240;51.538;7.696;2022-07-23T05:40:42;13.95;;;12.30;;
12350;SDS011;6240;51.538;7.696;2022-07-23T05:43:11;15.70;;;13.20;;
12350;SDS011;6240;51.538;7.696;2022-07-23T05:45:38;15.68;;;13.07;;
12350;SDS011;6240;51.538;7.696;2022-07-23T05:48:05;14.30;;;12.85;;
12350;SDS011;6240;51.538;7.696;2022-07-23T05:50:32;14.15;;;12.68;;
12350;SDS011;6240;51.538;7.696;2022-07-23T05:53:00;15.68;;;14.02;;
12350;SDS011;6240;51.538;7.696;2022-07-23T05:55:27;14.30;;;12.90;;
12350;SDS011;6240;51.538;7.696;2022-07-23T05:57:56;16.92;;;14.38;;
12350;SDS011;6240;51.538;7.696;2022-07-23T06:00:28;15.98;;;14.30;;
12350;SDS011;6240;51.538;7.696;2022-07-23T06:02:55;17.42;;;14.55;;
12350;SDS011;6240;51.538;7.696;2022-07-23T06:05:22;19.73;;;15.18;;
12350;SDS011;6240;51.538;7.696;2022-07-23T06:07:50;18.85;;;15.57;;
12350;SDS011;6240;51.538;7.696;2022-07-23T06:10:18;17.77;;;15.30;;
12350;SDS011;6240;51.538;7.696;2022-07-23T06:12:45;19.60;;;14.15;;
12350;SDS011;6240;51.538;7.696;2022-07-23T06:15:12;17.87;;;14.67;;
12350;SDS011;6240;51.538;7.696;2022-07-23T06:17:41;16.67;;;14.88;;
12350;SDS011;6240;51.538;7.696;2022-07-23T06:20:08;17.58;;;15.63;;
12350;SDS011;6240;51.538;7.696;2022-07-23T06:22:36;17.88;;;15.50;;
12350;SDS011;6240;51.538;7.696;2022-07-23T06:25:06;18.05;;;15.02;;
12350;SDS011;6240;51.538;7.696;2022-07-23T06:27:35;18.10;;;15.07;;
12350;SDS011;6240;51.538;7.696;2022-07-23T06:30:02;21.92;;;16.27;;
12350;SDS011;6240;51.538;7.696;2022-07-23T06:32:29;19.05;;;16.77;;
12350;SDS011;6240;51.538;7.696;2022-07-23T06:35:04;17.58;;;15.40;;
12350;SDS011;6240;51.538;7.696;2022-07-23T06:37:32;18.25;;;16.23;;
12350;SDS011;6240;51.538;7.696;2022-07-23T06:39:59;19.88;;;15.70;;
12350;SDS011;6240;51.538;7.696;2022-07-23T06:42:26;19.45;;;16.25;;
12350;SDS011;6240;51.538;7.696;2022-07-23T06:44:53;19.65;;;15.60;;
12350;SDS011;6240;51.538;7.696;2022-07-23T06:47:21;19.63;;;16.52;;
12350;SDS011;6240;51.538;7.696;2022-07-23T06:49:48;21.15;;;17.77;;
12350;SDS011;6240;51.538;7.696;2022-07-23T06:52:24;20.40;;;17.65;;
12350;SDS011;6240;51.538;7.696;2022-07-23T06:54:53;19.73;;;17.38;;
12350;SDS011;6240;51.538;7.696;2022-07-23T06:57:22;20.63;;;17.33;;
12350;SDS011;6240;51.538;7.696;2022-07-23T06:59:51;20.27;;;16.17;;
12350;SDS011;6240;51.538;7.696;2022-07-23T07:02:23;18.35;;;15.90;;
12350;SDS011;6240;51.538;7.696;2022-07-23T07:04:50;19.50;;;17.50;;
12350;SDS011;6240;51.538;7.696;2022-07-23T07:07:18;18.17;;;15.75;;
12350;SDS011;6240;51.538;7.696;2022-07-23T07:09:46;20.95;;;17.63;;
12350;SDS011;6240;51.538;7.696;2022-07-23T07:12:15;22.50;;;16.55;;
12350;SDS011;6240;51.538;7.696;2022-07-23T07:14:42;19.63;;;17.00;;
12350;SDS011;6240;51.538;7.696;2022-07-23T07:17:09;20.83;;;16.88;;
12350;SDS011;6240;51.538;7.696;2022-07-23T07:19:36;20.73;;;16.77;;
12350;SDS011;6240;51.538;7.696;2022-07-23T07:22:06;18.70;;;15.77;;
12350;SDS011;6240;51.538;7.696;2022-07-23T07:24:33;21.17;;;17.08;;
12350;SDS011;6240;51.538;7.696;2022-07-23T07:27:02;20.45;;;16.83;;
12350;SDS011;6240;51.538;7.696;2022-07-23T07:29:29;22.05;;;16.98;;
12350;SDS011;6240;51.538;7.696;2022-07-23T07:31:56;20.05;;;16.88;;
12350;SDS011;6240;51.538;7.696;2022-07-23T07:34:23;22.70;;;17.20;;
12350;SDS011;6240;51.538;7.696;2022-07-23T07:36:50;20.80;;;18.60;;
12350;SDS011;6240;51.538;7.696;2022-07-23T07:39:17;21.75;;;17.88;;
12350;SDS011;6240;51.538;7.696;2022-07-23T07:41:46;19.23;;;17.23;;
12350;SDS011;6240;51.538;7.696;2022-07-23T07:44:14;22.00;;;18.83;;
12350;SDS011;6240;51.538;7.696;2022-07-23T07:46:42;20.77;;;17.30;;
12350;SDS011;6240;51.538;7.696;2022-07-23T07:49:09;21.85;;;19.38;;
12350;SDS011;6240;51.538;7.696;2022-07-23T07:51:36;24.73;;;21.08;;
12350;SDS011;6240;51.538;7.696;2022-07-23T07:54:03;24.48;;;21.85;;
12350;SDS011;6240;51.538;7.696;2022-07-23T07:56:30;28.92;;;23.08;;
12350;SDS011;6240;51.538;7.696;2022-07-23T07:59:04;27.50;;;22.15;;
12350;SDS011;6240;51.538;7.696;2022-07-23T08:01:32;26.88;;;23.90;;
12350;SDS011;6240;51.538;7.696;2022-07-23T08:04:00;27.00;;;23.75;;
12350;SDS011;6240;51.538;7.696;2022-07-23T08:06:27;27.88;;;23.95;;
12350;SDS011;6240;51.538;7.696;2022-07-23T08:08:57;25.40;;;22.52;;
12350;SDS011;6240;51.538;7.696;2022-07-23T08:11:27;24.13;;;21.52;;
12350;SDS011;6240;51.538;7.696;2022-07-23T08:13:55;22.17;;;19.60;;
12350;SDS011;6240;51.538;7.696;2022-07-23T08:16:22;22.60;;;20.33;;
12350;SDS011;6240;51.538;7.696;2022-07-23T08:18:51;22.42;;;20.02;;
12350;SDS011;6240;51.538;7.696;2022-07-23T08:21:18;20.30;;;18.15;;
12350;SDS011;6240;51.538;7.696;2022-07-23T08:23:45;21.27;;;18.75;;
12350;SDS011;6240;51.538;7.696;2022-07-23T08:26:12;19.77;;;15.13;;
12350;SDS011;6240;51.538;7.696;2022-07-23T08:28:40;14.93;;;13.23;;
12350;SDS011;6240;51.538;7.696;2022-07-23T08:31:07;14.35;;;11.73;;
12350;SDS011;6240;51.538;7.696;2022-07-23T08:33:36;13.88;;;12.48;;
12350;SDS011;6240;51.538;7.696;2022-07-23T08:36:05;14.63;;;13.25;;
12350;SDS011;6240;51.538;7.696;2022-07-23T08:38:34;15.75;;;14.10;;
12350;SDS011;6240;51.538;7.696;2022-07-23T08:41:02;16.27;;;14.63;;
12350;SDS011;6240;51.538;7.696;2022-07-23T08:43:31;15.68;;;14.27;;
12350;SDS011;6240;51.538;7.696;2022-07-23T08:45:59;16.17;;;14.75;;
12350;SDS011;6240;51.538;7.696;2022-07-23T08:48:29;18.48;;;16.10;;
12350;SDS011;6240;51.538;7.696;2022-07-23T08:50:57;19.40;;;17.58;;
12350;SDS011;6240;51.538;7.696;2022-07-23T08:53:26;16.60;;;15.13;;
12350;SDS011;6240;51.538;7.696;2022-07-23T08:55:55;15.85;;;14.00;;
12350;SDS011;6240;51.538;7.696;2022-07-23T08:58:23;16.50;;;14.93;;
12350;SDS011;6240;51.538;7.696;2022-07-23T09:00:50;17.65;;;15.88;;
12350;SDS011;6240;51.538;7.696;2022-07-23T09:03:19;16.25;;;14.63;;
12350;SDS011;6240;51.538;7.696;2022-07-23T09:05:48;16.13;;;14.23;;
12350;SDS011;6240;51.538;7.696;2022-07-23T09:08:16;15.30;;;13.80;;
12350;SDS011;6240;51.538;7.696;2022-07-23T09:10:47;14.30;;;12.90;;
12350;SDS011;6240;51.538;7.696;2022-07-23T09:13:22;13.55;;;12.18;;
12350;SDS011;6240;51.538;7.696;2022-07-23T09:15:50;11.20;;;9.95;;
12350;SDS011;6240;51.538;7.696;2022-07-23T09:18:17;11.40;;;10.27;;
12350;SDS011;6240;51.538;7.696;2022-07-23T09:20:44;12.02;;;9.20;;
12350;SDS011;6240;51.538;7.696;2022-07-23T09:23:12;10.55;;;9.10;;
12350;SDS011;6240;51.538;7.696;2022-07-23T09:25:40;9.43;;;8.43;;
12350;SDS011;6240;51.538;7.696;2022-07-23T09:28:10;8.85;;;7.95;;
12350;SDS011;6240;51.538;7.696;2022-07-23T09:30:39;9.95;;;7.65;;
12350;SDS011;6240;51.538;7.696;2022-07-23T09:33:15;9.40;;;8.52;;
12350;SDS011;6240;51.538;7.696;2022-07-23T09:35:46;9.55;;;7.90;;
12350;SDS011;6240;51.538;7.696;2022-07-23T09:38:13;11.23;;;9.70;;
12350;SDS011;6240;51.538;7.696;2022-07-23T09:40:41;10.35;;;9.35;;
12350;SDS011;6240;51.538;7.696;2022-07-23T09:43:08;9.20;;;8.38;;
12350;SDS011;6240;51.538;7.696;2022-07-23T09:45:37;9.30;;;8.43;;
12350;SDS011;6240;51.538;7.696;2022-07-23T09:48:11;9.18;;;8.27;;
12350;SDS011;6240;51.538;7.696;2022-07-23T09:50:39;9.80;;;8.32;;
12350;SDS011;6240;51.538;7.696;2022-07-23T09:53:08;10.05;;;8.20;;
12350;SDS011;6240;51.538;7.696;2022-07-23T09:55:36;10.52;;;9.60;;
12350;SDS011;6240;51.538;7.696;2022-07-23T09:58:05;11.50;;;10.30;;
12350;SDS011;6240;51.538;7.696;2022-07-23T10:00:40;14.35;;;12.95;;
12350;SDS011;6240;51.538;7.696;2022-07-23T10:03:07;14.73;;;13.32;;
12350;SDS011;6240;51.538;7.696;2022-07-23T10:05:35;12.45;;;11.20;;
12350;SDS011;6240;51.538;7.696;2022-07-23T10:08:04;12.32;;;11.23;;
12350;SDS011;6240;51.538;7.696;2022-07-23T10:10:36;12.38;;;10.98;;
12350;SDS011;6240;51.538;7.696;2022-07-23T10:13:12;10.32;;;9.30;;
12350;SDS011;6240;51.538;7.696;2022-07-23T10:15:54;14.00;;;12.68;;
12350;SDS011;6240;51.538;7.696;2022-07-23T10:18:21;17.88;;;16.17;;
12350;SDS011;6240;51.538;7.696;2022-07-23T10:20:51;17.02;;;14.02;;
12350;SDS011;6240;51.538;7.696;2022-07-23T10:23:19;11.15;;;9.95;;
12350;SDS011;6240;51.538;7.696;2022-07-23T10:25:49;10.32;;;9.32;;
12350;SDS011;6240;51.538;7.696;2022-07-23T10:28:22;12.27;;;10.60;;
12350;SDS011;6240;51.538;7.696;2022-07-23T10:31:02;10.07;;;8.95;;
12350;SDS011;6240;51.538;7.696;2022-07-23T10:33:32;13.77;;;12.57;;
12350;SDS011;6240;51.538;7.696;2022-07-23T10:36:07;10.38;;;9.40;;
12350;SDS011;6240;51.538;7.696;2022-07-23T10:38:37;9.57;;;8.02;;
12350;SDS011;6240;51.538;7.696;2022-07-23T10:41:07;7.63;;;6.88;;
12350;SDS011;6240;51.538;7.696;2022-07-23T10:43:34;8.80;;;7.93;;
12350;SDS011;6240;51.538;7.696;2022-07-23T10:54:37;8.15;;;6.47;;
12350;SDS011;6240;51.538;7.696;2022-07-23T10:57:06;7.00;;;5.72;;
12350;SDS011;6240;51.538;7.696;2022-07-23T11:02:24;6.43;;;5.57;;
12350;SDS011;6240;51.538;7.696;2022-07-23T11:04:52;4.57;;;4.18;;
12350;SDS011;6240;51.538;7.696;2022-07-23T11:07:19;5.25;;;4.43;;
12350;SDS011;6240;51.538;7.696;2022-07-23T11:09:48;5.65;;;5.10;;
12350;SDS011;6240;51.538;7.696;2022-07-23T11:12:32;5.50;;;5.00;;
12350;SDS011;6240;51.538;7.696;2022-07-23T11:15:00;8.18;;;5.40;;
12350;SDS011;6240;51.538;7.696;2022-07-23T11:17:28;5.72;;;4.80;;
12350;SDS011;6240;51.538;7.696;2022-07-23T11:22:46;5.80;;;4.78;;
12350;SDS011;6240;51.538;7.696;2022-07-23T11:25:29;4.40;;;4.00;;
12350;SDS011;6240;51.538;7.696;2022-07-23T11:28:09;4.30;;;3.90;;
12350;SDS011;6240;51.538;7.696;2022-07-23T11:30:39;5.20;;;4.07;;
12350;SDS011;6240;51.538;7.696;2022-07-23T11:33:17;4.68;;;3.85;;
12350;SDS011;6240;51.538;7.696;2022-07-23T11:35:46;4.68;;;3.38;;
12350;SDS011;6240;51.538;7.696;2022-07-23T11:38:15;5.13;;;4.50;;
12350;SDS011;6240;51.538;7.696;2022-07-23T11:40:45;4.10;;;3.70;;
12350;SDS011;6240;51.538;7.696;2022-07-23T11:43:12;4.22;;;3.83;;
12350;SDS011;6240;51.538;7.696;2022-07-23T11:45:40;4.35;;;3.20;;
12350;SDS011;6240;51.538;7.696;2022-07-23T11:48:16;3.90;;;3.22;;
12350;SDS011;6240;51.538;7.696;2022-07-23T11:50:43;3.88;;;2.53;;
12350;SDS011;6240;51.538;7.696;2022-07-23T11:53:10;5.47;;;3.28;;
12350;SDS011;6240;51.538;7.696;2022-07-23T11:55:38;3.72;;;3.13;;
12350;SDS011;6240;51.538;7.696;2022-07-23T11:58:06;3.97;;;3.20;;
12350;SDS011;6240;51.538;7.696;2022-07-23T12:00:33;4.10;;;3.25;;
12350;SDS011;6240;51.538;7.696;2022-07-23T12:03:02;3.35;;;3.05;;
12350;SDS011;6240;51.538;7.696;2022-07-23T12:05:31;4.00;;;2.85;;
12350;SDS011;6240;51.538;7.696;2022-07-23T12:07:59;3.75;;;3.13;;
12350;SDS011;6240;51.538;7.696;2022-07-23T12:10:27;3.33;;;2.70;;
12350;SDS011;6240;51.538;7.696;2022-07-23T12:12:56;2.50;;;2.30;;
12350;SDS011;6240;51.538;7.696;2022-07-23T12:15:25;3.58;;;2.20;;
12350;SDS011;6240;51.538;7.696;2022-07-23T12:17:54;3.55;;;2.40;;
12350;SDS011;6240;51.538;7.696;2022-07-23T12:20:22;2.55;;;2.30;;
12350;SDS011;6240;51.538;7.696;2022-07-23T12:22:51;2.75;;;2.53;;
12350;SDS011;6240;51.538;7.696;2022-07-23T12:25:19;4.15;;;2.78;;
12350;SDS011;6240;51.538;7.696;2022-07-23T12:27:46;2.83;;;2.53;;
12350;SDS011;6240;51.538;7.696;2022-07-23T12:30:26;3.20;;;2.55;;
12350;SDS011;6240;51.538;7.696;2022-07-23T12:32:54;2.40;;;2.17;;
12350;SDS011;6240;51.538;7.696;2022-07-23T12:35:24;3.35;;;2.60;;
12350;SDS011;6240;51.538;7.696;2022-07-23T12:37:59;4.70;;;2.45;;
12350;SDS011;6240;51.538;7.696;2022-07-23T12:40:27;3.10;;;2.30;;
12350;SDS011;6240;51.538;7.696;2022-07-23T12:42:56;2.92;;;2.10;;
12350;SDS011;6240;51.538;7.696;2022-07-23T12:45:23;2.42;;;2.22;;
12350;SDS011;6240;51.538;7.696;2022-07-23T12:47:59;4.95;;;2.40;;
12350;SDS011;6240;51.538;7.696;2022-07-23T12:50:36;2.75;;;2.55;;
12350;SDS011;6240;51.538;7.696;2022-07-23T12:53:04;3.17;;;2.30;;
12350;SDS011;6240;51.538;7.696;2022-07-23T12:55:31;2.58;;;2.03;;
12350;SDS011;6240;51.538;7.696;2022-07-23T12:58:02;2.35;;;2.10;;
12350;SDS011;6240;51.538;7.696;2022-07-23T13:00:31;2.10;;;1.90;;
12350;SDS011;6240;51.538;7.696;2022-07-23T13:02:59;2.72;;;2.17;;
12350;SDS011;6240;51.538;7.696;2022-07-23T13:05:27;2.15;;;1.95;;
12350;SDS011;6240;51.538;7.696;2022-07-23T13:07:54;4.07;;;2.00;;
12350;SDS011;6240;51.538;7.696;2022-07-23T13:10:23;2.60;;;2.13;;
12350;SDS011;6240;51.538;7.696;2022-07-23T13:12:50;2.13;;;1.70;;
12350;SDS011;6240;51.538;7.696;2022-07-23T13:15:17;4.13;;;2.28;;
12350;SDS011;6240;51.538;7.696;2022-07-23T13:17:44;2.85;;;2.20;;
12350;SDS011;6240;51.538;7.696;2022-07-23T13:20:15;5.82;;;2.45;;
12350;SDS011;6240;51.538;7.696;2022-07-23T13:22:42;3.30;;;2.08;;
12350;SDS011;6240;51.538;7.696;2022-07-23T13:25:09;4.85;;;2.53;;
12350;SDS011;6240;51.538;7.696;2022-07-23T13:27:37;2.13;;;1.88;;
12350;SDS011;6240;51.538;7.696;2022-07-23T13:30:08;1.83;;;1.70;;
12350;SDS011;6240;51.538;7.696;2022-07-23T13:32:35;5.63;;;2.13;;
12350;SDS011;6240;51.538;7.696;2022-07-23T13:35:03;2.65;;;2.00;;
12350;SDS011;6240;51.538;7.696;2022-07-23T13:37:32;3.28;;;2.03;;
12350;SDS011;6240;51.538;7.696;2022-07-23T13:39:59;2.25;;;1.88;;
12350;SDS011;6240;51.538;7.696;2022-07-23T13:42:27;3.00;;;2.10;;
12350;SDS011;6240;51.538;7.696;2022-07-23T13:44:54;2.20;;;2.00;;
12350;SDS011;6240;51.538;7.696;2022-07-23T13:47:21;3.55;;;1.80;;
12350;SDS011;6240;51.538;7.696;2022-07-23T13:49:49;2.75;;;1.70;;
12350;SDS011;6240;51.538;7.696;2022-07-23T13:52:16;2.95;;;1.98;;
12350;SDS011;6240;51.538;7.696;2022-07-23T13:54:45;1.95;;;1.85;;
12350;SDS011;6240;51.538;7.696;2022-07-23T13:57:12;2.60;;;2.10;;
12350;SDS011;6240;51.538;7.696;2022-07-23T13:59:39;2.10;;;1.77;;
12350;SDS011;6240;51.538;7.696;2022-07-23T14:02:07;2.33;;;2.08;;
12350;SDS011;6240;51.538;7.696;2022-07-23T14:04:34;2.60;;;1.80;;
12350;SDS011;6240;51.538;7.696;2022-07-23T14:07:01;3.72;;;1.63;;
12350;SDS011;6240;51.538;7.696;2022-07-23T14:09:29;1.65;;;1.45;;
12350;SDS011;6240;51.538;7.696;2022-07-23T14:12:00;2.08;;;1.70;;
12350;SDS011;6240;51.538;7.696;2022-07-23T14:14:27;4.25;;;1.95;;
12350;SDS011;6240;51.538;7.696;2022-07-23T14:16:54;3.05;;;1.70;;
12350;SDS011;6240;51.538;7.696;2022-07-23T14:19:22;3.78;;;1.77;;
12350;SDS011;6240;51.538;7.696;2022-07-23T14:21:49;1.80;;;1.70;;
12350;SDS011;6240;51.538;7.696;2022-07-23T14:24:16;2.63;;;1.77;;
12350;SDS011;6240;51.538;7.696;2022-07-23T14:26:44;2.63;;;1.80;;
12350;SDS011;6240;51.538;7.696;2022-07-23T14:29:13;2.10;;;1.80;;
12350;SDS011;6240;51.538;7.696;2022-07-23T14:31:40;1.98;;;1.63;;
12350;SDS011;6240;51.538;7.696;2022-07-23T14:34:07;2.42;;;1.90;;
12350;SDS011;6240;51.538;7.696;2022-07-23T14:36:35;3.50;;;2.08;;
12350;SDS011;6240;51.538;7.696;2022-07-23T14:39:04;2.30;;;2.03;;
12350;SDS011;6240;51.538;7.696;2022-07-23T14:41:33;1.90;;;1.80;;
12350;SDS011;6240;51.538;7.696;2022-07-23T14:44:00;2.20;;;2.00;;
12350;SDS011;6240;51.538;7.696;2022-07-23T14:46:30;2.30;;;1.90;;
12350;SDS011;6240;51.538;7.696;2022-07-23T14:48:57;2.50;;;2.30;;
12350;SDS011;6240;51.538;7.696;2022-07-23T14:51:24;2.22;;;1.85;;
12350;SDS011;6240;51.538;7.696;2022-07-23T14:53:52;6.55;;;2.10;;
12350;SDS011;6240;51.538;7.696;2022-07-23T14:56:20;3.08;;;1.60;;
12350;SDS011;6240;51.538;7.696;2022-07-23T14:58:47;2.00;;;1.60;;
12350;SDS011;6240;51.538;7.696;2022-07-23T15:01:14;3.50;;;1.70;;
12350;SDS011;6240;51.538;7.696;2022-07-23T15:03:42;2.50;;;1.60;;
12350;SDS011;6240;51.538;7.696;2022-07-23T15:06:10;2.30;;;1.98;;